»·PEaware :: UAL497 KSFO-KSAN

UAL497 :: KSFO-KSAN

FLIGHT INFORMATION

Flight Status: Arrived
Operator:
United Airlines
More flights by this operator :: More flights under this callsign
Pilot: Nicholas B. (11473)
Aircraft: BOEING 737-800
(B738)
More flights by this aircraft type
Origin: KSFO San Francisco Intl
United States
Destination: KSAN San Diego Intl-Lindbergh
United States
More flights between these airports :: More routes between these airports
Route: OFFSH1 MCKEY LAX COMIX2
File this flight plan on PilotEdge
Remarks: PBN / A1B1C1D1S1S2 NAV / RNVD1E2A1 DOF / 181003 REG / N922SB EET / KZLA0029 OPR / UAL PER / D RMK / TCAS SIMBRIEF
Altitude:
(Current/Filed)
39,000ft
Speed:
(Current/Filed)
472kts
Departed: 03-Oct-18 11:27 AM
Arrived: 03-Oct-18 12:49 PM
Distance/Time
Traveled:
387nm/1:22
Distance/Time
To Go:
Arrived

Flight Plot

Page will automatically refresh every two minutes.

Flight plan parsing failed; only flown route is shown


Map Options




Map Legend


Flown Route
Filed Route
Departure Airport
Arrival Airport
Navaid (VOR, NDB)
Fix

Horizontal Profiles

Position Reports

Time Latitude Longitude Heading Altitude Ground
Speed
03-Oct-18 10:58 37.617971 -122.388492 133 31ft 0kts
03-Oct-18 10:59 37.617971 -122.388492 133 31ft 0kts
03-Oct-18 11:00 37.617971 -122.388492 133 31ft 0kts
03-Oct-18 11:01 37.617971 -122.388492 133 31ft 0kts
03-Oct-18 11:02 37.617971 -122.388492 133 31ft 0kts
03-Oct-18 11:03 37.617971 -122.388492 133 31ft 0kts
03-Oct-18 11:04 37.617971 -122.388492 133 31ft 0kts
03-Oct-18 11:05 37.617971 -122.388492 133 31ft 0kts
03-Oct-18 11:06 37.617971 -122.388492 133 31ft 0kts
03-Oct-18 11:07 37.617971 -122.388492 133 31ft 0kts
03-Oct-18 11:08 37.617971 -122.388492 133 31ft 0kts
03-Oct-18 11:09 37.617971 -122.388492 133 31ft 0kts
03-Oct-18 11:10 37.617971 -122.388492 133 31ft 0kts
03-Oct-18 11:11 37.617971 -122.388492 133 31ft 0kts
03-Oct-18 11:12 37.617971 -122.388492 133 31ft 0kts
03-Oct-18 11:13 37.617971 -122.388492 133 30ft 0kts
03-Oct-18 11:14 37.617971 -122.388492 133 30ft 0kts
03-Oct-18 11:15 37.617971 -122.388492 133 30ft 0kts
03-Oct-18 11:16 37.617971 -122.388492 133 30ft 0kts
03-Oct-18 11:17 37.618253 -122.388856 148 30ft 2kts
03-Oct-18 11:18 37.618817 -122.388857 208 30ft 0kts
03-Oct-18 11:19 37.618817 -122.388857 208 30ft 0kts
03-Oct-18 11:20 37.618711 -122.388960 225 30ft 3kts
03-Oct-18 11:21 37.619210 -122.391129 298 30ft 8kts
03-Oct-18 11:22 37.619634 -122.392075 304 30ft 9kts
03-Oct-18 11:23 37.622369 -122.390541 69 29ft 12kts
03-Oct-18 11:24 37.621380 -122.386087 118 30ft 15kts
03-Oct-18 11:25 37.619456 -122.381526 117 30ft 14kts
03-Oct-18 11:26 37.616532 -122.379709 205 30ft 11kts
03-Oct-18 11:27 37.613532 -122.381684 208 30ft 15kts
03-Oct-18 11:28 37.610707 -122.382334 115 30ft 6kts
03-Oct-18 11:29 37.615040 -122.378217 28 27ft 95kts
03-Oct-18 11:30 37.654420 -122.363846 0 1292ft 173kts
03-Oct-18 11:31 37.714818 -122.369285 335 2806ft 253kts
03-Oct-18 11:32 37.752089 -122.444366 271 5557ft 281kts
03-Oct-18 11:33 37.715699 -122.523553 207 8828ft 272kts
03-Oct-18 11:34 37.641089 -122.546327 194 10866ft 300kts
03-Oct-18 11:35 37.581084 -122.623040 231 13073ft 326kts
03-Oct-18 11:36 37.525577 -122.712491 198 15142ft 329kts
03-Oct-18 11:37 37.437525 -122.696581 165 17098ft 333kts
03-Oct-18 11:38 37.346038 -122.672361 165 18925ft 345kts
03-Oct-18 11:39 37.250661 -122.647330 165 20615ft 357kts
03-Oct-18 11:40 37.152352 -122.621550 164 22171ft 369kts
03-Oct-18 11:41 37.051599 -122.595162 165 23727ft 376kts
03-Oct-18 11:42 36.948966 -122.568339 167 25060ft 386kts
03-Oct-18 11:43 36.843921 -122.541041 167 26313ft 395kts
03-Oct-18 11:44 36.735801 -122.513004 167 27502ft 403kts
03-Oct-18 11:45 36.625364 -122.484441 167 28577ft 411kts
03-Oct-18 11:46 36.513043 -122.455488 167 29733ft 414kts
03-Oct-18 11:47 36.407888 -122.400743 141 30932ft 413kts
03-Oct-18 11:48 36.331434 -122.299724 130 32039ft 412kts
03-Oct-18 11:49 36.257771 -122.192174 130 33016ft 412kts
03-Oct-18 11:50 36.184043 -122.085062 130 33978ft 410kts
03-Oct-18 11:51 36.110685 -121.978817 130 34860ft 408kts
03-Oct-18 11:52 36.037170 -121.872658 130 35644ft 406kts
03-Oct-18 11:53 35.964275 -121.767750 130 36348ft 406kts
03-Oct-18 11:54 35.891967 -121.663965 130 37004ft 406kts
03-Oct-18 11:55 35.818623 -121.559062 130 37583ft 406kts
03-Oct-18 11:56 35.745295 -121.454505 130 38109ft 405kts
03-Oct-18 11:57 35.672162 -121.350554 130 38597ft 405kts
03-Oct-18 11:58 35.600093 -121.248387 131 38965ft 406kts
03-Oct-18 11:59 35.525051 -121.142346 132 38958ft 418kts
03-Oct-18 12:00 35.452260 -121.029455 128 38941ft 427kts
03-Oct-18 12:01 35.384793 -120.909225 131 38943ft 431kts
03-Oct-18 12:02 35.317119 -120.789865 130 38940ft 432kts
03-Oct-18 12:03 35.248852 -120.669873 131 38939ft 432kts
03-Oct-18 12:04 35.181504 -120.551935 131 38937ft 432kts
03-Oct-18 12:05 35.114333 -120.434731 131 38933ft 431kts
03-Oct-18 12:06 35.049285 -120.321489 131 38930ft 430kts
03-Oct-18 12:07 34.983012 -120.206536 132 38931ft 429kts
03-Oct-18 12:08 34.915091 -120.089027 134 38932ft 426kts
03-Oct-18 12:09 34.854757 -119.984985 135 38961ft 425kts
03-Oct-18 12:10 34.787286 -119.869048 135 38956ft 424kts
03-Oct-18 12:11 34.719671 -119.753193 135 38963ft 425kts
03-Oct-18 12:12 34.652555 -119.638521 135 38952ft 425kts
03-Oct-18 12:13 34.584359 -119.522359 135 38952ft 425kts
03-Oct-18 12:14 34.516434 -119.407049 135 38954ft 425kts
03-Oct-18 12:15 34.449344 -119.293499 135 38952ft 424kts
03-Oct-18 12:16 34.382166 -119.180253 135 38947ft 424kts
03-Oct-18 12:17 34.313988 -119.065612 135 38950ft 424kts
03-Oct-18 12:18 34.246213 -118.951942 136 38945ft 421kts
03-Oct-18 12:19 34.179184 -118.839678 138 38939ft 408kts
03-Oct-18 12:20 34.113448 -118.730296 139 38949ft 406kts
03-Oct-18 12:21 34.048149 -118.621790 139 37877ft 402kts
03-Oct-18 12:22 33.983862 -118.515412 139 35201ft 402kts
03-Oct-18 12:23 33.917451 -118.410047 145 32091ft 398kts
03-Oct-18 12:24 33.847851 -118.321335 143 29044ft 406kts
03-Oct-18 12:25 33.771527 -118.222853 141 25792ft 405kts
03-Oct-18 12:26 33.699085 -118.127680 140 23621ft 395kts
03-Oct-18 12:27 33.627525 -118.033831 139 22391ft 389kts
03-Oct-18 12:28 33.557746 -117.942567 139 21225ft 383kts
03-Oct-18 12:29 33.485929 -117.857886 142 19902ft 375kts
03-Oct-18 12:30 33.411239 -117.773685 143 18436ft 367kts
03-Oct-18 12:31 33.337120 -117.694888 143 17217ft 362kts
03-Oct-18 12:32 33.263983 -117.616971 142 15930ft 358kts
03-Oct-18 12:33 33.190973 -117.539914 142 14265ft 360kts
03-Oct-18 12:34 33.116520 -117.465060 149 12749ft 357kts
03-Oct-18 12:35 33.040732 -117.402934 147 11429ft 321kts
03-Oct-18 12:36 32.975019 -117.347738 149 10293ft 276kts
03-Oct-18 12:37 32.919128 -117.301010 149 9371ft 259kts
03-Oct-18 12:38 32.865942 -117.256836 149 8504ft 256kts
03-Oct-18 12:39 32.844429 -117.203951 102 7816ft 267kts
03-Oct-18 12:40 32.834411 -117.118411 101 6870ft 265kts
03-Oct-18 12:41 32.823496 -117.033491 101 6032ft 245kts
03-Oct-18 12:42 32.811764 -116.956031 101 4993ft 227kts
03-Oct-18 12:43 32.798090 -116.888937 130 4904ft 204kts
03-Oct-18 12:44 32.755021 -116.906385 230 4012ft 189kts
03-Oct-18 12:45 32.721692 -116.953833 231 3992ft 185kts
03-Oct-18 12:46 32.691092 -116.999100 232 2976ft 164kts
03-Oct-18 12:47 32.699571 -117.047878 284 2162ft 159kts
03-Oct-18 12:48 32.712080 -117.099871 283 1557ft 163kts
03-Oct-18 12:49 32.724287 -117.151162 282 657ft 163kts
03-Oct-18 12:50 32.734837 -117.194924 285 21ft 52kts
03-Oct-18 12:51 32.734915 -117.198903 253 17ft 0kts
03-Oct-18 12:52 32.735780 -117.203213 286 17ft 18kts
03-Oct-18 12:53 32.734957 -117.205238 226 17ft 7kts
03-Oct-18 12:54 32.734199 -117.204769 112 17ft 0kts
03-Oct-18 12:55 32.734196 -117.204760 112 17ft 0kts
03-Oct-18 12:56 32.734196 -117.204760 112 17ft 0kts
03-Oct-18 12:57 32.734196 -117.204760 112 18ft 0kts
03-Oct-18 12:58 32.734196 -117.204760 112 18ft 0kts
03-Oct-18 12:59 32.734196 -117.204760 112 18ft 0kts
03-Oct-18 13:00 32.734196 -117.204760 112 18ft 0kts
03-Oct-18 13:01 32.734196 -117.204760 112 18ft 0kts
03-Oct-18 13:02 32.734196 -117.204760 112 18ft 0kts
03-Oct-18 13:03 32.734196 -117.204760 112 18ft 0kts
03-Oct-18 13:04 32.734196 -117.204760 112 18ft 0kts
03-Oct-18 13:05 32.734196 -117.204760 112 18ft 0kts

Navigation Log

Ident Type
Flight plan parsing failed, navigation log unavailable